Time;durP1;ratioP1;P1;durP2;ratioP2;P2;SDS_P1;SDS_P2;PMS_P1;PMS_P2;Temp;Humidity;BMP_temperature;BMP_pressure;BME280_temperature;BME280_humidity;BME280_pressure;Samples;Min_cycle;Max_cycle;Signal;HPM_P1;HPM_P2
2021/06/13 00:01:12;;;;;;;6.05;3.90;;;;;;;;;;5082842;28;20024;-81
2021/06/13 00:03:38;;;;;;;7.50;4.00;;;;;;;;;;5062799;28;20036;-80
2021/06/13 00:06:05;;;;;;;3.92;3.38;;;;;;;;;;5062446;28;20037;-82
2021/06/13 00:08:31;;;;;;;7.72;4.15;;;;;;;;;;5081566;28;20169;-83
2021/06/13 00:10:58;;;;;;;5.45;4.00;;;;;;;;;;5077658;28;20044;-80
2021/06/13 00:13:25;;;;;;;5.30;4.20;;;;;;;;;;5070314;28;20055;-81
2021/06/13 00:15:52;;;;;;;4.40;4.00;;;;;;;;;;5069721;28;20028;-80
2021/06/13 00:18:19;;;;;;;4.47;4.07;;;;;;;;;;5071213;28;20021;-80
2021/06/13 00:20:45;;;;;;;6.80;3.83;;;;;;;;;;5087035;28;20548;-80
2021/06/13 00:23:11;;;;;;;5.25;4.70;;;;;;;;;;5066285;28;20025;-80
2021/06/13 00:25:37;;;;;;;5.47;4.57;;;;;;;;;;5083607;28;20033;-81
2021/06/13 00:28:04;;;;;;;6.47;4.28;;;;;;;;;;5082521;28;20025;-81
2021/06/13 00:30:30;;;;;;;4.25;3.83;;;;;;;;;;5084993;28;20082;-81
2021/06/13 00:32:56;;;;;;;6.07;3.95;;;;;;;;;;5083685;28;20085;-80
2021/06/13 00:35:23;;;;;;;4.78;4.30;;;;;;;;;;5087036;28;20025;-80
2021/06/13 00:37:50;;;;;;;3.40;3.10;;;;;;;;;;5094892;28;20016;-80
2021/06/13 00:40:18;;;;;;;4.70;4.05;;;;;;;;;;5078277;28;20029;-80
2021/06/13 00:42:44;;;;;;;4.55;4.13;;;;;;;;;;5095024;28;20021;-80
2021/06/13 00:45:10;;;;;;;4.97;4.47;;;;;;;;;;5076517;28;20039;-80
2021/06/13 00:47:36;;;;;;;6.65;4.70;;;;;;;;;;5094941;28;20012;-80
2021/06/13 00:50:04;;;;;;;9.60;6.38;;;;;;;;;;5095180;28;20013;-80
2021/06/13 00:52:30;;;;;;;6.13;4.70;;;;;;;;;;5069921;28;20091;-83
2021/06/13 00:54:56;;;;;;;4.95;4.45;;;;;;;;;;5085611;28;20094;-80
2021/06/13 00:57:22;;;;;;;6.10;4.65;;;;;;;;;;5086613;28;20039;-83
2021/06/13 00:59:48;;;;;;;6.13;4.63;;;;;;;;;;5084935;28;20402;-80
2021/06/13 01:02:14;;;;;;;5.38;4.88;;;;;;;;;;5093275;28;20080;-81
2021/06/13 01:04:40;;;;;;;4.95;4.40;;;;;;;;;;5070380;28;20028;-80
2021/06/13 01:07:18;;;;;;;4.50;4.07;;;;;;;;;;5066858;28;20417;-80
2021/06/13 01:09:49;;;;;;;5.20;4.70;;;;;;;;;;5080548;28;20233;-81
2021/06/13 01:12:26;;;;;;;5.75;4.22;;;;;;;;;;5082802;28;20068;-81
2021/06/13 01:14:52;;;;;;;5.68;4.88;;;;;;;;;;5092095;28;20052;-81
2021/06/13 01:17:22;;;;;;;6.85;5.05;;;;;;;;;;5089878;28;20040;-81
2021/06/13 01:20:09;;;;;;;4.30;3.83;;;;;;;;;;5084091;28;20021;-81
2021/06/13 01:22:44;;;;;;;4.97;4.53;;;;;;;;;;5083483;28;20103;-81
2021/06/13 01:25:27;;;;;;;6.82;4.88;;;;;;;;;;5080252;28;20027;-82
2021/06/13 01:28:08;;;;;;;5.03;4.53;;;;;;;;;;5062086;28;20378;-82
2021/06/13 01:30:36;;;;;;;4.88;4.10;;;;;;;;;;5063113;28;20036;-82
2021/06/13 01:33:06;;;;;;;6.70;4.65;;;;;;;;;;5062600;28;20016;-82
2021/06/13 01:35:33;;;;;;;6.05;5.35;;;;;;;;;;5061476;28;20024;-82
2021/06/13 01:37:59;;;;;;;7.85;5.68;;;;;;;;;;5062170;28;20475;-82
2021/06/13 01:40:28;;;;;;;10.18;5.38;;;;;;;;;;5071832;28;20051;-82
2021/06/13 01:42:57;;;;;;;6.13;4.65;;;;;;;;;;5062082;28;20413;-82
2021/06/13 01:45:24;;;;;;;7.50;5.20;;;;;;;;;;5062268;28;20021;-82
2021/06/13 01:47:51;;;;;;;7.30;5.20;;;;;;;;;;5062386;28;20016;-82
2021/06/13 01:50:18;;;;;;;5.63;5.05;;;;;;;;;;5081015;28;20384;-81
2021/06/13 01:52:44;;;;;;;5.90;4.65;;;;;;;;;;5081168;28;20023;-81
2021/06/13 01:55:11;;;;;;;7.57;5.18;;;;;;;;;;5071319;28;20111;-81
2021/06/13 01:57:40;;;;;;;5.55;5.05;;;;;;;;;;5096777;28;20135;-81
2021/06/13 02:00:08;;;;;;;9.52;5.72;;;;;;;;;;5073284;28;20054;-81
2021/06/13 02:02:34;;;;;;;5.45;4.63;;;;;;;;;;5062538;28;20131;-81
2021/06/13 02:05:00;;;;;;;7.18;5.10;;;;;;;;;;5070014;28;20031;-82
2021/06/13 02:07:26;;;;;;;5.25;4.40;;;;;;;;;;5061298;28;20389;-82
2021/06/13 02:09:52;;;;;;;6.28;5.30;;;;;;;;;;5054549;28;20040;-82
2021/06/13 02:12:19;;;;;;;9.10;5.38;;;;;;;;;;5059500;28;20017;-82
2021/06/13 02:14:46;;;;;;;15.80;6.18;;;;;;;;;;5040896;28;20072;-82
2021/06/13 02:17:12;;;;;;;4.93;4.40;;;;;;;;;;5069058;28;20040;-82
2021/06/13 02:19:42;;;;;;;5.72;5.10;;;;;;;;;;5079091;28;20021;-82
2021/06/13 02:22:10;;;;;;;7.45;5.68;;;;;;;;;;5062905;28;20036;-82
2021/06/13 02:24:37;;;;;;;6.78;5.50;;;;;;;;;;5082057;28;20024;-81
2021/06/13 02:27:04;;;;;;;6.07;5.38;;;;;;;;;;5084563;28;20079;-81
2021/06/13 02:29:31;;;;;;;7.63;5.40;;;;;;;;;;5086496;28;20120;-81
2021/06/13 02:31:58;;;;;;;5.95;4.45;;;;;;;;;;5065581;28;20074;-81
2021/06/13 02:34:25;;;;;;;5.47;4.97;;;;;;;;;;5080196;28;20026;-81
2021/06/13 02:36:52;;;;;;;14.00;5.63;;;;;;;;;;5077678;28;20032;-81
2021/06/13 02:39:19;;;;;;;5.78;4.85;;;;;;;;;;5078805;28;20028;-82
2021/06/13 02:41:45;;;;;;;7.82;5.00;;;;;;;;;;5065567;28;20032;-81
2021/06/13 02:44:12;;;;;;;7.35;5.57;;;;;;;;;;5059083;28;20021;-82
2021/06/13 02:46:38;;;;;;;7.45;5.68;;;;;;;;;;5055220;28;20028;-81
2021/06/13 02:49:05;;;;;;;7.68;5.35;;;;;;;;;;5080134;28;20404;-81
2021/06/13 02:51:36;;;;;;;5.72;4.60;;;;;;;;;;5088139;28;20028;-83
2021/06/13 02:54:03;;;;;;;8.93;5.68;;;;;;;;;;5081047;28;20021;-81
2021/06/13 02:56:49;;;;;;;8.65;5.63;;;;;;;;;;5062185;28;20028;-81
2021/06/13 02:59:15;;;;;;;6.50;4.97;;;;;;;;;;5076627;28;20067;-82
2021/06/13 03:01:44;;;;;;;7.25;5.35;;;;;;;;;;5091436;28;20024;-82
2021/06/13 03:04:11;;;;;;;6.18;5.15;;;;;;;;;;5078976;28;20020;-81
2021/06/13 03:06:37;;;;;;;5.63;4.75;;;;;;;;;;5079069;28;20024;-82
2021/06/13 03:09:04;;;;;;;8.63;5.25;;;;;;;;;;5080428;28;20043;-81
2021/06/13 03:11:30;;;;;;;5.68;5.07;;;;;;;;;;5065716;28;20028;-82
2021/06/13 03:13:58;;;;;;;8.73;4.85;;;;;;;;;;5078679;28;20025;-83
2021/06/13 03:16:24;;;;;;;6.65;5.25;;;;;;;;;;5078657;28;20036;-82
2021/06/13 03:18:51;;;;;;;6.85;5.60;;;;;;;;;;5078376;28;20032;-83
2021/06/13 03:21:17;;;;;;;9.20;6.35;;;;;;;;;;5059599;28;20020;-82
2021/06/13 03:23:44;;;;;;;9.80;5.22;;;;;;;;;;5078973;28;20111;-83
2021/06/13 03:26:10;;;;;;;9.30;5.20;;;;;;;;;;5078839;28;20100;-82
2021/06/13 03:28:37;;;;;;;6.95;4.68;;;;;;;;;;5060122;28;20028;-82
2021/06/13 03:31:04;;;;;;;5.53;4.20;;;;;;;;;;5061895;28;20508;-82
2021/06/13 03:33:31;;;;;;;7.63;5.78;;;;;;;;;;5061220;28;20062;-82
2021/06/13 03:35:58;;;;;;;8.98;5.38;;;;;;;;;;5061320;28;20052;-81
2021/06/13 03:38:25;;;;;;;5.93;5.05;;;;;;;;;;5077340;28;20017;-83
2021/06/13 03:40:51;;;;;;;6.43;5.15;;;;;;;;;;5052569;28;20021;-82
2021/06/13 03:43:18;;;;;;;8.98;6.13;;;;;;;;;;5079035;28;20059;-82
2021/06/13 03:45:45;;;;;;;8.55;5.90;;;;;;;;;;5078309;28;20103;-81
2021/06/13 03:48:12;;;;;;;7.43;5.28;;;;;;;;;;5078281;28;20473;-81
2021/06/13 03:50:42;;;;;;;9.60;5.47;;;;;;;;;;5061949;28;20035;-82
2021/06/13 03:53:09;;;;;;;11.30;5.32;;;;;;;;;;5061245;28;20107;-82
2021/06/13 03:55:35;;;;;;;6.30;5.38;;;;;;;;;;5060621;28;20052;-82
2021/06/13 03:58:01;;;;;;;6.35;5.40;;;;;;;;;;5060147;28;20032;-82
2021/06/13 04:00:31;;;;;;;9.50;6.30;;;;;;;;;;5060471;28;20023;-83
2021/06/13 04:02:58;;;;;;;6.68;5.28;;;;;;;;;;5077436;28;20017;-83
2021/06/13 04:05:25;;;;;;;5.88;5.25;;;;;;;;;;5078461;28;20040;-82
2021/06/13 04:07:53;;;;;;;10.82;6.60;;;;;;;;;;5052903;28;20025;-82
2021/06/13 04:10:20;;;;;;;8.35;5.78;;;;;;;;;;5049740;28;20024;-83
2021/06/13 04:12:50;;;;;;;12.73;5.85;;;;;;;;;;5075484;28;20035;-79
2021/06/13 04:15:17;;;;;;;7.57;5.57;;;;;;;;;;5065355;28;20029;-79
2021/06/13 04:17:44;;;;;;;7.60;6.07;;;;;;;;;;5065775;28;20024;-78
2021/06/13 04:20:11;;;;;;;6.45;5.25;;;;;;;;;;5074225;28;20020;-77
2021/06/13 04:22:41;;;;;;;9.70;6.38;;;;;;;;;;5074817;28;20025;-78
2021/06/13 04:25:12;;;;;;;6.88;4.93;;;;;;;;;;5074501;28;20111;-78
2021/06/13 04:27:38;;;;;;;10.23;5.80;;;;;;;;;;5056706;28;20024;-78
2021/06/13 04:30:06;;;;;;;7.63;5.15;;;;;;;;;;5079593;28;20033;-77
2021/06/13 04:32:33;;;;;;;10.05;6.15;;;;;;;;;;5068532;28;20515;-78
2021/06/13 04:34:59;;;;;;;6.28;5.10;;;;;;;;;;5086219;28;20024;-78
2021/06/13 04:37:26;;;;;;;8.30;5.90;;;;;;;;;;5084246;28;20033;-77
2021/06/13 04:39:52;;;;;;;10.82;5.95;;;;;;;;;;5074459;28;20085;-78
2021/06/13 04:42:18;;;;;;;7.05;5.57;;;;;;;;;;5059954;28;20041;-78
2021/06/13 04:44:44;;;;;;;6.35;5.43;;;;;;;;;;5041060;28;20033;-80
2021/06/13 04:47:10;;;;;;;7.97;5.32;;;;;;;;;;5052546;28;20107;-78
2021/06/13 04:49:37;;;;;;;9.27;5.88;;;;;;;;;;5079362;28;20099;-78
2021/06/13 04:52:06;;;;;;;10.05;6.03;;;;;;;;;;5059656;28;20029;-77
2021/06/13 04:54:38;;;;;;;5.90;4.72;;;;;;;;;;5078181;28;20024;-78
2021/06/13 04:57:04;;;;;;;;;;;;;;;;;;5078163;28;20032;-78
2021/06/13 04:59:30;;;;;;;9.18;5.47;;;;;;;;;;5080578;28;19927;-78
2021/06/13 05:01:56;;;;;;;7.15;4.97;;;;;;;;;;5080571;28;20020;-78
2021/06/13 05:04:22;;;;;;;5.07;4.57;;;;;;;;;;5071051;28;20040;-78
2021/06/13 05:06:48;;;;;;;7.53;5.65;;;;;;;;;;5083246;28;20060;-81
2021/06/13 05:09:14;;;;;;;7.40;5.07;;;;;;;;;;5080388;28;20078;-79
2021/06/13 05:11:40;;;;;;;7.05;4.25;;;;;;;;;;5051014;28;20397;-79
2021/06/13 05:14:07;;;;;;;9.25;5.10;;;;;;;;;;5066218;28;20028;-78
2021/06/13 05:16:33;;;;;;;6.25;3.95;;;;;;;;;;5049080;28;20077;-78
2021/06/13 05:19:09;;;;;;;5.80;3.95;;;;;;;;;;5088021;28;20021;-81
2021/06/13 05:21:35;;;;;;;5.60;2.92;;;;;;;;;;5075928;28;20068;-80
2021/06/13 05:24:01;;;;;;;3.90;2.63;;;;;;;;;;5092842;28;20085;-81
2021/06/13 05:26:28;;;;;;;5.28;2.20;;;;;;;;;;5063366;28;20354;-81
2021/06/13 05:28:55;;;;;;;2.53;2.25;;;;;;;;;;5080796;28;20031;-81
2021/06/13 05:31:21;;;;;;;5.53;3.15;;;;;;;;;;5083358;28;20103;-81
2021/06/13 05:33:47;;;;;;;4.65;2.42;;;;;;;;;;5067738;28;20444;-81
2021/06/13 05:36:13;;;;;;;3.60;2.40;;;;;;;;;;5075544;28;20024;-81
2021/06/13 05:38:41;;;;;;;3.72;2.42;;;;;;;;;;5095656;28;20029;-83
2021/06/13 05:41:07;;;;;;;2.80;2.00;;;;;;;;;;5066045;28;20025;-81
2021/06/13 05:43:33;;;;;;;6.70;2.42;;;;;;;;;;5083156;28;20028;-81
2021/06/13 05:46:01;;;;;;;8.30;3.00;;;;;;;;;;5090990;28;20037;-81
2021/06/13 05:48:27;;;;;;;2.10;1.90;;;;;;;;;;5093625;28;20084;-83
2021/06/13 05:50:54;;;;;;;2.58;1.98;;;;;;;;;;5098043;28;20024;-80
2021/06/13 05:53:20;;;;;;;2.72;1.95;;;;;;;;;;5070933;28;20020;-81
2021/06/13 05:55:48;;;;;;;2.63;1.80;;;;;;;;;;5066643;28;20020;-82
2021/06/13 05:58:15;;;;;;;3.55;2.10;;;;;;;;;;5061947;28;20040;-81
2021/06/13 06:00:47;;;;;;;5.43;2.42;;;;;;;;;;5065349;28;20017;-81
2021/06/13 06:03:13;;;;;;;3.42;2.20;;;;;;;;;;5061902;28;20554;-80
2021/06/13 06:05:39;;;;;;;3.47;2.30;;;;;;;;;;5079730;28;20116;-80
2021/06/13 06:08:08;;;;;;;6.63;2.80;;;;;;;;;;5079155;28;20029;-82
2021/06/13 06:10:35;;;;;;;5.78;2.47;;;;;;;;;;5067579;28;20158;-81
2021/06/13 06:13:04;;;;;;;2.67;1.50;;;;;;;;;;5057671;28;20051;-82
2021/06/13 06:15:30;;;;;;;1.45;1.35;;;;;;;;;;5041176;28;20024;-82
2021/06/13 06:17:56;;;;;;;5.95;2.33;;;;;;;;;;5062080;28;20028;-82
2021/06/13 06:20:24;;;;;;;3.22;2.20;;;;;;;;;;5060742;28;20043;-82
2021/06/13 06:22:51;;;;;;;4.45;2.00;;;;;;;;;;5042699;28;20029;-82
2021/06/13 06:25:18;;;;;;;5.63;2.28;;;;;;;;;;5042643;28;20393;-83
2021/06/13 06:27:44;;;;;;;1.70;1.60;;;;;;;;;;5040646;28;20405;-82
2021/06/13 06:30:11;;;;;;;2.22;2.03;;;;;;;;;;5059726;28;20028;-83
2021/06/13 06:32:37;;;;;;;2.95;2.20;;;;;;;;;;5059511;28;20025;-81
2021/06/13 06:35:04;;;;;;;3.00;2.33;;;;;;;;;;5040014;28;20551;-81
2021/06/13 06:37:30;;;;;;;8.10;2.90;;;;;;;;;;5061779;28;20138;-81
2021/06/13 06:39:56;;;;;;;2.92;1.98;;;;;;;;;;5054511;28;20200;-80
2021/06/13 06:42:22;;;;;;;4.15;2.00;;;;;;;;;;5081889;28;20088;-79
2021/06/13 06:44:48;;;;;;;7.00;2.97;;;;;;;;;;5089878;28;20048;-81
2021/06/13 06:47:14;;;;;;;4.18;2.42;;;;;;;;;;5085078;28;20032;-81
2021/06/13 06:49:44;;;;;;;3.53;2.90;;;;;;;;;;5068134;28;20541;-81
2021/06/13 06:52:12;;;;;;;3.72;2.28;;;;;;;;;;5077675;28;20095;-79
2021/06/13 06:54:40;;;;;;;3.83;2.30;;;;;;;;;;5089167;28;20044;-79
2021/06/13 06:57:06;;;;;;;4.30;3.25;;;;;;;;;;5088502;28;20032;-80
2021/06/13 06:59:32;;;;;;;5.35;2.72;;;;;;;;;;5087786;28;20023;-80
2021/06/13 07:01:58;;;;;;;2.72;2.00;;;;;;;;;;5079737;28;20054;-80
2021/06/13 07:04:24;;;;;;;5.45;2.65;;;;;;;;;;5090143;28;20117;-80
2021/06/13 07:06:50;;;;;;;3.35;1.85;;;;;;;;;;5090523;28;20038;-79
2021/06/13 07:09:16;;;;;;;2.65;1.98;;;;;;;;;;5061398;28;20116;-80
2021/06/13 07:11:43;;;;;;;6.28;3.05;;;;;;;;;;5063488;28;20056;-82
2021/06/13 07:14:09;;;;;;;3.50;2.45;;;;;;;;;;5045061;28;20052;-81
2021/06/13 07:16:35;;;;;;;2.38;1.85;;;;;;;;;;5047696;28;20041;-80
2021/06/13 07:19:01;;;;;;;3.22;2.00;;;;;;;;;;5069296;28;20025;-81
2021/06/13 07:21:27;;;;;;;3.30;2.17;;;;;;;;;;5080011;28;20031;-81
2021/06/13 07:23:53;;;;;;;4.07;2.80;;;;;;;;;;5080703;28;20050;-81
2021/06/13 07:26:19;;;;;;;3.28;1.98;;;;;;;;;;5046801;28;20128;-81
2021/06/13 07:28:45;;;;;;;5.47;3.00;;;;;;;;;;5069099;28;20028;-81
2021/06/13 07:31:11;;;;;;;3.40;2.67;;;;;;;;;;5071415;28;20044;-80
2021/06/13 07:33:37;;;;;;;4.93;2.97;;;;;;;;;;5060332;28;20033;-81
2021/06/13 07:36:05;;;;;;;8.27;2.83;;;;;;;;;;5061084;28;20039;-80
2021/06/13 07:38:31;;;;;;;3.67;2.45;;;;;;;;;;5066515;28;20027;-80
2021/06/13 07:40:57;;;;;;;4.93;3.00;;;;;;;;;;5063671;28;20025;-80
2021/06/13 07:43:23;;;;;;;5.35;3.55;;;;;;;;;;5059680;28;20118;-81
2021/06/13 07:45:49;;;;;;;5.03;3.67;;;;;;;;;;5042999;28;20045;-81
2021/06/13 07:48:15;;;;;;;6.97;3.65;;;;;;;;;;5059569;28;20039;-80
2021/06/13 07:50:42;;;;;;;7.85;4.40;;;;;;;;;;5060639;28;20036;-81
2021/06/13 07:53:09;;;;;;;6.35;3.47;;;;;;;;;;5060541;28;20028;-80
2021/06/13 07:55:35;;;;;;;6.68;3.33;;;;;;;;;;5049183;28;20052;-81
2021/06/13 07:58:01;;;;;;;4.78;2.53;;;;;;;;;;5067928;28;20029;-79
2021/06/13 08:00:28;;;;;;;7.38;3.95;;;;;;;;;;5060077;28;20492;-81
2021/06/13 08:02:54;;;;;;;4.10;3.08;;;;;;;;;;5070677;28;20024;-80
2021/06/13 08:05:27;;;;;;;9.60;4.15;;;;;;;;;;5084419;28;20074;-80
2021/06/13 08:07:54;;;;;;;5.43;3.10;;;;;;;;;;5083303;28;20020;-80
2021/06/13 08:10:20;;;;;;;3.95;3.13;;;;;;;;;;5047754;28;20485;-79
2021/06/13 08:12:46;;;;;;;5.90;3.30;;;;;;;;;;5062522;28;20051;-81
2021/06/13 08:15:12;;;;;;;7.43;3.22;;;;;;;;;;5063744;28;20094;-80
2021/06/13 08:17:38;;;;;;;6.72;3.40;;;;;;;;;;5046230;28;20389;-79
2021/06/13 08:20:05;;;;;;;7.38;4.13;;;;;;;;;;5078710;28;20054;-80
2021/06/13 08:22:31;;;;;;;5.28;3.30;;;;;;;;;;5065144;28;20121;-80
2021/06/13 08:25:01;;;;;;;4.82;2.30;;;;;;;;;;5082830;28;20029;-81
2021/06/13 08:27:27;;;;;;;4.97;3.25;;;;;;;;;;5065389;28;20034;-80
2021/06/13 08:29:54;;;;;;;4.35;3.13;;;;;;;;;;5084436;28;20035;-79
2021/06/13 08:32:20;;;;;;;4.75;3.58;;;;;;;;;;5083560;28;20048;-79
2021/06/13 08:34:46;;;;;;;6.75;3.80;;;;;;;;;;5085555;28;20048;-79
2021/06/13 08:37:12;;;;;;;6.53;3.05;;;;;;;;;;5098569;28;20108;-81
2021/06/13 08:39:38;;;;;;;9.40;3.15;;;;;;;;;;5089283;28;20137;-81
2021/06/13 08:42:04;;;;;;;4.57;3.33;;;;;;;;;;5064562;28;20028;-81
2021/06/13 08:44:31;;;;;;;7.35;2.92;;;;;;;;;;5084827;28;20166;-80
2021/06/13 08:46:57;;;;;;;5.05;2.78;;;;;;;;;;5062187;28;20021;-80
2021/06/13 08:49:24;;;;;;;6.10;2.88;;;;;;;;;;5076325;28;20020;-79
2021/06/13 08:51:51;;;;;;;5.28;3.45;;;;;;;;;;5057019;28;20024;-79
2021/06/13 08:54:17;;;;;;;2.72;2.28;;;;;;;;;;5083288;28;20082;-79
2021/06/13 08:56:43;;;;;;;4.38;3.13;;;;;;;;;;5071576;28;20397;-79
2021/06/13 08:59:11;;;;;;;5.25;2.80;;;;;;;;;;5067161;28;20059;-81
2021/06/13 09:01:37;;;;;;;6.07;3.22;;;;;;;;;;5073793;28;20021;-79
2021/06/13 09:04:03;;;;;;;6.47;3.72;;;;;;;;;;5085812;28;20033;-81
2021/06/13 09:06:29;;;;;;;6.18;3.17;;;;;;;;;;5092289;28;20050;-79
2021/06/13 09:08:55;;;;;;;4.55;2.58;;;;;;;;;;5091705;28;20054;-81
2021/06/13 09:11:42;;;;;;;8.07;4.82;;;;;;;;;;5094683;28;20084;-80
2021/06/13 09:14:12;;;;;;;4.72;3.30;;;;;;;;;;5074158;28;20017;-80
2021/06/13 09:16:43;;;;;;;5.07;2.95;;;;;;;;;;5074717;28;20032;-80
2021/06/13 09:19:09;;;;;;;7.60;3.13;;;;;;;;;;5078134;28;20048;-78
2021/06/13 09:21:37;;;;;;;6.85;3.05;;;;;;;;;;5081006;28;20047;-78
2021/06/13 09:24:17;;;;;;;5.68;2.65;;;;;;;;;;5095175;28;20028;-80
2021/06/13 09:26:43;;;;;;;4.78;2.83;;;;;;;;;;5088902;28;20025;-81
2021/06/13 09:29:09;;;;;;;3.75;2.50;;;;;;;;;;5070300;28;20170;-81
2021/06/13 09:31:37;;;;;;;4.60;2.60;;;;;;;;;;5087045;28;20032;-81
2021/06/13 09:34:05;;;;;;;7.15;3.10;;;;;;;;;;5086578;28;20108;-81
2021/06/13 09:36:35;;;;;;;4.30;2.67;;;;;;;;;;5086719;28;20020;-81
2021/06/13 09:39:06;;;;;;;3.90;2.45;;;;;;;;;;5086116;28;20078;-81
2021/06/13 09:41:37;;;;;;;6.57;2.55;;;;;;;;;;5086675;28;20050;-81
2021/06/13 09:44:13;;;;;;;6.00;2.20;;;;;;;;;;5086364;28;20029;-80
2021/06/13 09:46:40;;;;;;;8.50;2.55;;;;;;;;;;5087031;28;20016;-81
2021/06/13 09:49:09;;;;;;;4.30;2.22;;;;;;;;;;5068351;28;20086;-82
2021/06/13 09:51:45;;;;;;;3.38;2.38;;;;;;;;;;5086043;28;20081;-81
2021/06/13 09:54:12;;;;;;;5.22;2.50;;;;;;;;;;5087872;28;20081;-82
2021/06/13 09:56:38;;;;;;;4.07;2.30;;;;;;;;;;5087583;28;20028;-81
2021/06/13 09:59:11;;;;;;;8.40;3.65;;;;;;;;;;5067880;28;20031;-81
2021/06/13 10:01:53;;;;;;;2.63;1.73;;;;;;;;;;5086347;28;20108;-81
2021/06/13 10:04:27;;;;;;;3.33;2.03;;;;;;;;;;5087091;28;20403;-81
2021/06/13 10:06:54;;;;;;;5.40;2.53;;;;;;;;;;5084732;28;20075;-81
2021/06/13 10:09:21;;;;;;;5.25;2.10;;;;;;;;;;5081767;28;20139;-81
2021/06/13 10:11:48;;;;;;;3.45;1.95;;;;;;;;;;5066340;28;20021;-81
2021/06/13 10:14:17;;;;;;;4.88;1.60;;;;;;;;;;5080156;28;20056;-81
2021/06/13 10:16:47;;;;;;;2.45;1.70;;;;;;;;;;5084504;28;20029;-81
2021/06/13 10:19:16;;;;;;;6.13;2.63;;;;;;;;;;5067016;28;20054;-81
2021/06/13 10:21:50;;;;;;;2.78;1.77;;;;;;;;;;5067906;28;20038;-81
2021/06/13 10:24:23;;;;;;;4.85;1.63;;;;;;;;;;5067121;28;20021;-84
2021/06/13 10:26:54;;;;;;;5.72;1.63;;;;;;;;;;5068102;28;20040;-82
2021/06/13 10:29:21;;;;;;;3.28;1.50;;;;;;;;;;5084164;28;20384;-81
2021/06/13 10:31:48;;;;;;;2.03;1.50;;;;;;;;;;5068628;28;20084;-80
2021/06/13 10:34:18;;;;;;;6.03;2.17;;;;;;;;;;5069691;28;20066;-81
2021/06/13 10:36:44;;;;;;;3.97;1.77;;;;;;;;;;5068860;28;20063;-81
2021/06/13 10:39:12;;;;;;;3.25;1.60;;;;;;;;;;5067573;28;20068;-82
2021/06/13 10:41:38;;;;;;;3.83;1.33;;;;;;;;;;5067483;28;20112;-81
2021/06/13 10:44:06;;;;;;;2.35;1.83;;;;;;;;;;5068856;28;20017;-81
2021/06/13 10:46:33;;;;;;;2.05;1.27;;;;;;;;;;5069117;28;20021;-81
2021/06/13 10:49:01;;;;;;;2.30;1.42;;;;;;;;;;5088868;28;20032;-82
2021/06/13 10:51:33;;;;;;;5.30;1.63;;;;;;;;;;5088125;28;20080;-82
2021/06/13 10:54:18;;;;;;;2.92;1.70;;;;;;;;;;5087690;28;20024;-81
2021/06/13 10:56:44;;;;;;;1.98;1.63;;;;;;;;;;5086990;28;20048;-82
2021/06/13 10:59:14;;;;;;;3.22;1.92;;;;;;;;;;5088180;28;20040;-82
2021/06/13 11:01:56;;;;;;;1.75;1.42;;;;;;;;;;5092710;28;20070;-83
2021/06/13 11:04:40;;;;;;;2.63;1.50;;;;;;;;;;5095006;28;20021;-82
2021/06/13 11:07:06;;;;;;;3.45;1.60;;;;;;;;;;5070864;28;20046;-82
2021/06/13 11:09:32;;;;;;;3.45;2.20;;;;;;;;;;5057424;28;20124;-81
2021/06/13 11:11:58;;;;;;;2.33;1.95;;;;;;;;;;5076240;28;20028;-81
2021/06/13 11:14:29;;;;;;;2.78;2.00;;;;;;;;;;5079928;28;20024;-81
2021/06/13 11:16:58;;;;;;;2.42;1.42;;;;;;;;;;5059520;28;20449;-82
2021/06/13 11:19:35;;;;;;;5.57;1.77;;;;;;;;;;5074673;28;20374;-82
2021/06/13 11:22:16;;;;;;;2.55;1.92;;;;;;;;;;5073853;28;20107;-82
2021/06/13 11:24:49;;;;;;;3.08;2.33;;;;;;;;;;5076167;28;20163;-82
2021/06/13 11:27:16;;;;;;;5.82;2.00;;;;;;;;;;5084867;28;20033;-81
2021/06/13 11:29:55;;;;;;;4.03;1.80;;;;;;;;;;5084512;28;20063;-82
2021/06/13 11:32:40;;;;;;;4.35;1.95;;;;;;;;;;5068374;28;20396;-82
2021/06/13 11:35:25;;;;;;;4.40;2.35;;;;;;;;;;5070011;28;20012;-81
2021/06/13 11:38:13;;;;;;;2.95;2.08;;;;;;;;;;5066066;28;20108;-81
2021/06/13 11:40:46;;;;;;;2.15;1.65;;;;;;;;;;5082752;28;20051;-81
2021/06/13 11:43:14;;;;;;;2.55;1.88;;;;;;;;;;5079335;28;20040;-82
2021/06/13 11:45:52;;;;;;;4.18;1.88;;;;;;;;;;5071418;28;20100;-82
2021/06/13 11:48:24;;;;;;;5.20;1.83;;;;;;;;;;5081685;28;20376;-82
2021/06/13 11:51:09;;;;;;;9.32;2.38;;;;;;;;;;5064876;28;20428;-81
2021/06/13 11:53:53;;;;;;;5.47;1.98;;;;;;;;;;5067102;28;20366;-82
2021/06/13 11:56:35;;;;;;;2.97;1.70;;;;;;;;;;5070027;28;20036;-82
2021/06/13 11:59:01;;;;;;;1.83;1.67;;;;;;;;;;5083789;28;20052;-83
2021/06/13 12:01:28;;;;;;;2.85;1.88;;;;;;;;;;5085408;28;20024;-83
2021/06/13 12:03:55;;;;;;;1.88;1.70;;;;;;;;;;5067183;28;20027;-83
2021/06/13 12:06:22;;;;;;;1.98;1.50;;;;;;;;;;5077091;28;20070;-83
2021/06/13 12:08:49;;;;;;;2.47;1.80;;;;;;;;;;5080444;28;20058;-81
2021/06/13 12:11:31;;;;;;;2.80;1.65;;;;;;;;;;5065333;28;20059;-82
2021/06/13 12:13:58;;;;;;;5.60;2.10;;;;;;;;;;5084403;28;20047;-82
2021/06/13 12:16:27;;;;;;;3.88;1.60;;;;;;;;;;5089448;28;20020;-81
2021/06/13 12:18:59;;;;;;;4.25;1.73;;;;;;;;;;5081743;28;20020;-82
2021/06/13 12:21:28;;;;;;;3.10;1.63;;;;;;;;;;5081731;28;20036;-82
2021/06/13 12:24:01;;;;;;;2.38;1.35;;;;;;;;;;5074545;28;20012;-82
2021/06/13 12:29:42;;;;;;;2.33;1.40;;;;;;;;;;5076819;28;20039;-83
2021/06/13 12:32:13;;;;;;;1.60;1.50;;;;;;;;;;5078752;28;20212;-82
2021/06/13 12:34:39;;;;;;;1.60;1.50;;;;;;;;;;5082703;28;20033;-82
2021/06/13 12:37:06;;;;;;;3.42;1.50;;;;;;;;;;5064022;28;20028;-82
2021/06/13 12:39:32;;;;;;;5.18;1.88;;;;;;;;;;5061814;28;20036;-82
2021/06/13 12:42:14;;;;;;;2.00;1.48;;;;;;;;;;5068058;28;20020;-81
2021/06/13 12:44:41;;;;;;;1.35;1.23;;;;;;;;;;5083339;28;20016;-82
2021/06/13 12:47:09;;;;;;;2.25;1.30;;;;;;;;;;5047796;28;20036;-83
2021/06/13 12:49:55;;;;;;;3.35;1.20;;;;;;;;;;5060948;28;20429;-83
2021/06/13 12:52:22;;;;;;;3.83;1.13;;;;;;;;;;5069968;28;20052;-83
2021/06/13 12:54:56;;;;;;;0.80;0.80;;;;;;;;;;5069482;28;20106;-82
2021/06/13 12:57:24;;;;;;;2.95;1.30;;;;;;;;;;5097789;28;20044;-82
2021/06/13 12:59:50;;;;;;;2.35;1.40;;;;;;;;;;5092809;28;20093;-82
2021/06/13 13:02:16;;;;;;;2.25;1.30;;;;;;;;;;5067252;28;20042;-82
2021/06/13 13:04:47;;;;;;;1.50;1.30;;;;;;;;;;5080528;28;20023;-82
2021/06/13 13:07:25;;;;;;;1.42;1.30;;;;;;;;;;5097397;28;20025;-80
2021/06/13 13:10:22;;;;;;;3.00;0.80;;;;;;;;;;5092128;28;20076;-81
2021/06/13 13:12:52;;;;;;;4.22;1.33;;;;;;;;;;5076238;28;20036;-81
2021/06/13 13:15:24;;;;;;;2.65;1.42;;;;;;;;;;5098616;28;20016;-80
2021/06/13 13:17:51;;;;;;;1.73;0.95;;;;;;;;;;5096991;28;20067;-82
2021/06/13 13:20:23;;;;;;;3.20;1.15;;;;;;;;;;5096702;28;20024;-82
2021/06/13 13:22:49;;;;;;;;;;;;;;;;;;5097302;28;20076;-79
2021/06/13 13:25:16;;;;;;;1.73;0.85;;;;;;;;;;5088265;28;19981;-81
2021/06/13 13:27:43;;;;;;;3.25;1.00;;;;;;;;;;5079758;28;20131;-79
2021/06/13 13:30:29;;;;;;;3.42;1.10;;;;;;;;;;5077881;28;20029;-80
2021/06/13 13:32:56;;;;;;;2.20;1.30;;;;;;;;;;5079232;28;20400;-82
2021/06/13 13:35:28;;;;;;;2.13;1.20;;;;;;;;;;5078714;28;20025;-80
2021/06/13 13:37:54;;;;;;;;;;;;;;;;;;5084482;28;20028;-80
2021/06/13 13:40:21;;;;;;;2.55;1.10;;;;;;;;;;5095754;28;19904;-80
2021/06/13 13:43:05;;;;;;;4.65;1.65;;;;;;;;;;5080569;28;20016;-81
2021/06/13 13:45:32;;;;;;;1.40;1.00;;;;;;;;;;5077052;28;20020;-81
2021/06/13 13:48:07;;;;;;;1.98;0.80;;;;;;;;;;5078587;28;20169;-82
2021/06/13 13:50:35;;;;;;;1.83;1.02;;;;;;;;;;5067015;28;20024;-82
2021/06/13 13:53:17;;;;;;;3.88;0.90;;;;;;;;;;5070696;28;20034;-80
2021/06/13 13:55:47;;;;;;;1.98;0.90;;;;;;;;;;5082229;28;20024;-80
2021/06/13 13:58:15;;;;;;;1.10;1.00;;;;;;;;;;5087587;28;20020;-80
2021/06/13 14:00:41;;;;;;;3.20;1.20;;;;;;;;;;5065563;28;20428;-81
2021/06/13 14:03:07;;;;;;;2.22;0.90;;;;;;;;;;5088998;28;20021;-81
2021/06/13 14:05:33;;;;;;;1.00;0.90;;;;;;;;;;5090264;28;20028;-81
2021/06/13 14:07:59;;;;;;;1.23;1.02;;;;;;;;;;5071617;28;20020;-80
2021/06/13 14:10:25;;;;;;;1.67;1.25;;;;;;;;;;5071334;28;20028;-79
2021/06/13 14:12:51;;;;;;;3.13;2.38;;;;;;;;;;5073894;28;20107;-81
2021/06/13 14:15:17;;;;;;;1.73;1.33;;;;;;;;;;5087946;28;20024;-80
2021/06/13 14:17:43;;;;;;;3.35;1.42;;;;;;;;;;5090156;28;20111;-82
2021/06/13 14:20:09;;;;;;;2.13;1.17;;;;;;;;;;5089550;28;20097;-80
2021/06/13 14:22:35;;;;;;;1.42;1.33;;;;;;;;;;5089836;28;20025;-79
2021/06/13 14:25:01;;;;;;;1.92;0.95;;;;;;;;;;5088056;28;20112;-81
2021/06/13 14:27:27;;;;;;;4.63;1.15;;;;;;;;;;5070567;28;20033;-81
2021/06/13 14:29:53;;;;;;;1.85;0.90;;;;;;;;;;5071511;28;20025;-80
2021/06/13 14:32:19;;;;;;;2.05;0.98;;;;;;;;;;5068432;28;20025;-82
2021/06/13 14:34:45;;;;;;;2.85;1.50;;;;;;;;;;5062057;28;20025;-81
2021/06/13 14:37:11;;;;;;;3.08;1.20;;;;;;;;;;5078213;28;20055;-82
2021/06/13 14:39:38;;;;;;;1.52;1.10;;;;;;;;;;5055307;28;20167;-82
2021/06/13 14:42:04;;;;;;;2.25;1.00;;;;;;;;;;5081642;28;20308;-83
2021/06/13 14:44:30;;;;;;;1.05;0.90;;;;;;;;;;5081719;28;20031;-81
2021/06/13 14:46:56;;;;;;;3.65;1.23;;;;;;;;;;5093167;28;20067;-79
2021/06/13 14:49:22;;;;;;;2.67;1.65;;;;;;;;;;5086041;28;20021;-81
2021/06/13 14:51:48;;;;;;;1.23;1.00;;;;;;;;;;5081232;28;20039;-81
2021/06/13 14:54:14;;;;;;;3.47;1.45;;;;;;;;;;5080838;28;20020;-81